createdAt,value
2023-01-20T00:01:31.919Z,1.24
2023-01-20T00:03:58.770Z,1.30
2023-01-20T00:06:27.929Z,1.35
2023-01-20T00:08:56.314Z,1.39
2023-01-20T00:11:23.428Z,1.39
2023-01-20T00:13:54.849Z,1.39
2023-01-20T00:16:22.110Z,1.46
2023-01-20T00:18:49.072Z,1.47
2023-01-20T00:21:19.263Z,1.44
2023-01-20T00:23:47.145Z,1.38
2023-01-20T00:26:19.397Z,1.31
2023-01-20T00:28:46.680Z,1.26
2023-01-20T00:31:22.440Z,1.18
2023-01-20T00:33:50.768Z,1.09
2023-01-20T00:36:18.777Z,1.07
2023-01-20T00:38:46.631Z,1.04
2023-01-20T00:41:14.948Z,1.04
2023-01-20T00:43:41.705Z,0.99
2023-01-20T00:46:08.581Z,1.00
2023-01-20T00:48:36.017Z,1.03
2023-01-20T00:51:03.990Z,1.11
2023-01-20T00:53:30.676Z,1.15
2023-01-20T00:55:57.551Z,1.22
2023-01-20T00:58:24.344Z,1.28
2023-01-20T01:00:52.470Z,1.33
2023-01-20T01:03:19.376Z,1.33
2023-01-20T01:05:46.308Z,1.33
2023-01-20T01:08:13.338Z,1.35
2023-01-20T01:10:40.707Z,1.40
2023-01-20T01:13:09.025Z,1.40
2023-01-20T01:15:36.356Z,1.46
2023-01-20T01:18:03.676Z,1.46
2023-01-20T01:20:30.804Z,1.43
2023-01-20T01:22:57.579Z,1.45
2023-01-20T01:25:24.558Z,1.48
2023-01-20T01:27:51.277Z,1.47
2023-01-20T01:30:18.165Z,1.47
2023-01-20T01:32:44.977Z,1.47
2023-01-20T01:35:12.298Z,1.45
2023-01-20T01:37:39.259Z,1.31
2023-01-20T01:40:06.846Z,1.39
2023-01-20T01:42:33.629Z,1.40
2023-01-20T01:45:12.819Z,1.41
2023-01-20T01:47:40.697Z,1.36
2023-01-20T01:50:09.825Z,1.32
2023-01-20T01:52:36.650Z,1.28
2023-01-20T01:55:04.127Z,1.25
2023-01-20T01:57:31.719Z,1.27
2023-01-20T01:59:58.491Z,1.33
2023-01-20T02:02:25.389Z,1.33
2023-01-20T02:04:52.145Z,1.32
2023-01-20T02:07:20.900Z,1.34
2023-01-20T02:09:47.706Z,1.27
2023-01-20T02:12:16.177Z,1.34
2023-01-20T02:14:47.037Z,1.33
2023-01-20T02:17:30.622Z,1.31
2023-01-20T02:20:30.664Z,1.31
2023-01-20T02:23:00.014Z,1.33
2023-01-20T02:25:48.473Z,1.34
2023-01-20T02:28:42.987Z,1.33
2023-01-20T02:31:46.986Z,1.35
2023-01-20T02:34:28.562Z,1.39
2023-01-20T02:36:57.158Z,1.40
2023-01-20T02:39:32.415Z,1.36
2023-01-20T02:42:25.934Z,1.38
2023-01-20T02:44:56.924Z,1.40
2023-01-20T02:47:37.835Z,1.41
2023-01-20T02:50:18.081Z,1.43
2023-01-20T02:52:46.585Z,1.45
2023-01-20T02:55:17.640Z,1.45
2023-01-20T02:57:48.808Z,1.46
2023-01-20T03:00:25.878Z,1.43
2023-01-20T03:02:53.792Z,1.45
2023-01-20T03:05:24.022Z,1.44
2023-01-20T03:07:52.145Z,1.44
2023-01-20T03:10:20.623Z,1.51
2023-01-20T03:12:53.400Z,1.51
2023-01-20T03:15:24.132Z,1.53
2023-01-20T03:17:51.344Z,1.55
2023-01-20T03:20:18.315Z,1.56
2023-01-20T03:22:45.052Z,1.56
2023-01-20T03:25:14.047Z,1.57
2023-01-20T03:27:41.560Z,1.60
2023-01-20T03:30:17.677Z,1.60
2023-01-20T03:32:46.451Z,1.57
2023-01-20T03:35:16.464Z,1.56
2023-01-20T03:37:43.949Z,1.53
2023-01-20T03:40:11.449Z,1.50
2023-01-20T03:42:49.515Z,1.51
2023-01-20T03:45:33.414Z,1.56
2023-01-20T03:48:12.773Z,1.59
2023-01-20T03:50:41.191Z,1.62
2023-01-20T03:53:16.911Z,1.64
2023-01-20T03:55:48.167Z,1.67
2023-01-20T03:58:21.542Z,1.68
2023-01-20T04:00:49.440Z,1.63
2023-01-20T04:03:22.839Z,1.65
2023-01-20T04:05:50.039Z,1.68
2023-01-20T04:08:18.319Z,1.70
2023-01-20T04:10:47.136Z,1.70
2023-01-20T04:13:14.814Z,1.67
2023-01-20T04:15:44.498Z,1.69
2023-01-20T04:18:19.753Z,1.66
2023-01-20T04:20:49.543Z,1.58
2023-01-20T04:23:24.320Z,1.56
2023-01-20T04:25:51.092Z,1.58
2023-01-20T04:28:17.815Z,1.52
2023-01-20T04:30:44.818Z,1.56
2023-01-20T04:33:11.759Z,1.58
2023-01-20T04:35:38.448Z,1.55
2023-01-20T04:38:05.581Z,1.53
2023-01-20T04:40:32.624Z,1.40
2023-01-20T04:42:59.276Z,1.43
2023-01-20T04:45:26.062Z,1.51
2023-01-20T04:47:52.902Z,1.56
2023-01-20T04:50:19.729Z,1.58
2023-01-20T04:52:46.470Z,1.61
2023-01-20T04:55:13.997Z,1.57
2023-01-20T04:57:40.985Z,1.59
2023-01-20T05:00:08.668Z,1.58
2023-01-20T05:02:35.519Z,1.60
2023-01-20T05:05:02.338Z,1.58
2023-01-20T05:07:29.067Z,1.62
2023-01-20T05:09:55.766Z,1.59
2023-01-20T05:12:22.531Z,1.63
2023-01-20T05:14:49.280Z,1.64
2023-01-20T05:17:15.985Z,1.70
2023-01-20T05:19:43.683Z,1.76
2023-01-20T05:22:10.600Z,1.84
2023-01-20T05:24:37.258Z,1.89
2023-01-20T05:27:04.029Z,1.95
2023-01-20T05:29:30.839Z,2.00
2023-01-20T05:31:57.600Z,2.02
2023-01-20T05:34:24.441Z,2.07
2023-01-20T05:36:53.016Z,2.14
2023-01-20T05:39:20.117Z,2.18
2023-01-20T05:41:47.633Z,2.26
2023-01-20T05:44:15.255Z,2.23
2023-01-20T05:46:42.152Z,2.27
2023-01-20T05:49:11.804Z,2.26
2023-01-20T05:51:38.753Z,2.24
2023-01-20T05:54:05.651Z,2.20
2023-01-20T05:56:32.588Z,2.22
2023-01-20T05:58:59.375Z,2.27
2023-01-20T06:01:26.148Z,2.28
2023-01-20T06:03:52.884Z,2.17
2023-01-20T06:06:19.643Z,2.14
2023-01-20T06:08:46.444Z,2.10
2023-01-20T06:11:14.813Z,2.14
2023-01-20T06:13:41.582Z,2.21
2023-01-20T06:16:08.386Z,2.29
2023-01-20T06:18:35.415Z,2.34
2023-01-20T06:21:02.237Z,2.39
2023-01-20T06:23:29.843Z,2.45
2023-01-20T06:26:00.455Z,2.50
2023-01-20T06:28:27.623Z,2.55
2023-01-20T06:31:05.987Z,2.61
2023-01-20T06:33:33.217Z,2.58
2023-01-20T06:36:00.633Z,2.58
2023-01-20T06:38:30.016Z,2.69
2023-01-20T06:41:00.978Z,2.79
2023-01-20T06:43:31.724Z,2.92
2023-01-20T06:46:00.339Z,2.98
2023-01-20T06:48:27.188Z,3.02
2023-01-20T06:50:54.069Z,3.09
2023-01-20T06:53:20.864Z,3.15
2023-01-20T06:55:56.150Z,3.18
2023-01-20T06:58:24.952Z,3.17
2023-01-20T07:00:52.308Z,3.22
2023-01-20T07:03:19.600Z,3.24
2023-01-20T07:05:58.974Z,3.27
2023-01-20T07:08:25.870Z,3.24
2023-01-20T07:10:52.681Z,3.20
2023-01-20T07:13:19.487Z,3.08
2023-01-20T07:15:46.265Z,2.99
2023-01-20T07:18:13.311Z,2.95
2023-01-20T07:20:40.290Z,2.85
2023-01-20T07:23:07.856Z,2.83
2023-01-20T07:25:34.793Z,2.84
2023-01-20T07:28:01.533Z,2.76
2023-01-20T07:30:28.388Z,2.73
2023-01-20T07:32:55.234Z,2.64
2023-01-20T07:35:22.077Z,2.46
2023-01-20T07:37:48.852Z,2.42
2023-01-20T07:40:15.765Z,2.47
2023-01-20T07:42:42.661Z,2.49
2023-01-20T07:45:09.815Z,2.57
2023-01-20T07:47:36.509Z,2.56
2023-01-20T07:50:03.464Z,2.65
2023-01-20T07:52:30.224Z,2.71
2023-01-20T07:54:56.935Z,2.78
2023-01-20T07:57:23.744Z,2.76
2023-01-20T07:59:51.736Z,2.80
2023-01-20T08:02:18.486Z,2.80
2023-01-20T08:04:45.259Z,2.77
2023-01-20T08:07:12.287Z,2.80
2023-01-20T08:09:41.068Z,2.77
2023-01-20T08:12:08.024Z,2.72
2023-01-20T08:14:37.668Z,2.70
2023-01-20T08:17:04.630Z,2.71
2023-01-20T08:19:31.429Z,2.69
2023-01-20T08:21:58.211Z,2.66
2023-01-20T08:24:24.917Z,2.61
2023-01-20T08:26:52.039Z,2.64
2023-01-20T08:29:19.115Z,2.62
2023-01-20T08:31:45.950Z,2.65
2023-01-20T08:34:12.940Z,2.67
2023-01-20T08:36:41.018Z,2.74
2023-01-20T08:39:09.787Z,2.76
2023-01-20T08:41:38.813Z,2.75
2023-01-20T08:44:07.102Z,2.71
2023-01-20T08:46:34.575Z,2.73
2023-01-20T08:49:01.338Z,2.75
2023-01-20T08:51:30.506Z,2.75
2023-01-20T08:53:57.623Z,2.76
2023-01-20T08:56:24.400Z,2.80
2023-01-20T08:58:51.225Z,2.84
2023-01-20T09:01:23.887Z,2.83
2023-01-20T09:04:04.227Z,2.84
2023-01-20T09:06:39.581Z,2.82
2023-01-20T09:09:06.408Z,2.83
2023-01-20T09:11:33.513Z,2.84
2023-01-20T09:14:00.389Z,2.84
2023-01-20T09:16:28.052Z,2.85
2023-01-20T09:18:54.860Z,2.87
2023-01-20T09:21:21.980Z,2.93
2023-01-20T09:23:48.807Z,2.92
2023-01-20T09:26:26.093Z,2.92
2023-01-20T09:29:09.752Z,3.00
2023-01-20T09:31:44.491Z,3.01
2023-01-20T09:34:18.931Z,3.05
2023-01-20T09:36:46.304Z,3.09
2023-01-20T09:39:34.440Z,3.14
2023-01-20T09:42:30.883Z,3.19
2023-01-20T09:45:27.897Z,3.27
2023-01-20T09:48:14.288Z,3.42
2023-01-20T09:51:09.819Z,3.50
2023-01-20T09:53:50.949Z,3.53
2023-01-20T09:56:18.772Z,3.62
2023-01-20T09:58:57.652Z,3.74
2023-01-20T10:01:30.952Z,3.86
2023-01-20T10:04:01.906Z,3.94
2023-01-20T10:06:37.598Z,3.99
2023-01-20T10:09:08.802Z,4.03
2023-01-20T10:11:39.166Z,4.12
2023-01-20T10:14:26.586Z,4.19
2023-01-20T10:17:02.552Z,4.26
2023-01-20T10:19:37.788Z,4.25
2023-01-20T10:22:20.570Z,4.24
2023-01-20T10:24:59.665Z,4.30
2023-01-20T10:27:28.694Z,4.30
2023-01-20T10:30:09.033Z,4.44
2023-01-20T10:33:01.161Z,4.54
2023-01-20T10:35:29.546Z,4.54
2023-01-20T10:37:58.623Z,4.67
2023-01-20T10:40:35.342Z,4.75
2023-01-20T10:43:10.686Z,4.85
2023-01-20T10:46:01.883Z,4.87
2023-01-20T10:48:50.302Z,4.93
2023-01-20T10:51:35.321Z,4.94
2023-01-20T10:54:37.475Z,4.99
2023-01-20T10:57:05.052Z,5.00
2023-01-20T10:59:40.286Z,4.96
2023-01-20T11:02:30.772Z,4.87
2023-01-20T11:04:59.968Z,4.89
2023-01-20T11:07:27.718Z,4.90
2023-01-20T11:09:54.711Z,4.90
2023-01-20T11:12:27.512Z,4.93
2023-01-20T11:14:55.723Z,4.88
2023-01-20T11:17:22.485Z,4.85
2023-01-20T11:19:51.989Z,4.84
2023-01-20T11:22:26.744Z,4.75
2023-01-20T11:24:56.307Z,4.66
2023-01-20T11:27:27.371Z,4.65
2023-01-20T11:30:03.986Z,4.68
2023-01-20T11:32:32.151Z,4.76
2023-01-20T11:35:00.661Z,4.74
2023-01-20T11:37:36.464Z,4.70
2023-01-20T11:40:18.163Z,4.67
2023-01-20T11:42:47.119Z,4.63
2023-01-20T11:45:27.499Z,4.62
2023-01-20T11:48:06.405Z,4.60
2023-01-20T11:50:56.274Z,4.57
2023-01-20T11:53:31.828Z,4.52
2023-01-20T11:56:01.496Z,4.47
2023-01-20T11:58:32.326Z,4.48
2023-01-20T12:01:07.126Z,4.43
2023-01-20T12:04:10.571Z,4.47
2023-01-20T12:06:46.667Z,4.51
2023-01-20T12:09:16.080Z,4.51
2023-01-20T12:11:50.134Z,4.47
2023-01-20T12:14:20.077Z,4.46
2023-01-20T12:17:06.654Z,4.52
2023-01-20T12:19:42.512Z,4.68
2023-01-20T12:22:18.336Z,4.76
2023-01-20T12:25:08.684Z,4.69
2023-01-20T12:27:41.987Z,4.71
2023-01-20T12:30:32.317Z,4.79
2023-01-20T12:32:59.211Z,4.78
2023-01-20T12:35:29.585Z,4.72
2023-01-20T12:38:00.364Z,4.70
2023-01-20T12:40:30.036Z,4.59
2023-01-20T12:43:14.751Z,4.42
2023-01-20T12:45:45.666Z,4.29
2023-01-20T12:48:51.133Z,4.13
2023-01-20T12:51:34.997Z,3.99
2023-01-20T12:54:28.521Z,3.91
2023-01-20T12:57:12.953Z,3.80
2023-01-20T12:59:45.378Z,3.78
2023-01-20T13:02:46.343Z,3.71
2023-01-20T13:05:29.213Z,3.71
2023-01-20T13:08:36.613Z,3.66
2023-01-20T13:11:35.419Z,3.46
2023-01-20T13:14:23.363Z,3.38
2023-01-20T13:16:53.479Z,3.28
2023-01-20T13:19:35.414Z,3.18
2023-01-20T13:22:24.244Z,3.01
2023-01-20T13:24:53.331Z,2.88
2023-01-20T13:27:40.277Z,2.68
2023-01-20T13:30:08.336Z,2.65
2023-01-20T13:32:45.446Z,2.53
2023-01-20T13:35:18.365Z,2.48
2023-01-20T13:37:52.466Z,2.44
2023-01-20T13:40:37.717Z,2.38
2023-01-20T13:43:25.578Z,2.35
2023-01-20T13:46:07.692Z,2.24
2023-01-20T13:48:35.958Z,2.28
2023-01-20T13:51:21.533Z,2.29
2023-01-20T13:53:48.344Z,2.26
2023-01-20T13:56:28.708Z,2.25
2023-01-20T13:58:58.220Z,2.25
2023-01-20T14:01:26.104Z,2.21
2023-01-20T14:04:02.939Z,2.21
2023-01-20T14:06:30.061Z,2.20
2023-01-20T14:08:57.077Z,2.14
2023-01-20T14:11:25.873Z,2.15
2023-01-20T14:13:58.063Z,2.14
2023-01-20T14:16:30.083Z,2.07
2023-01-20T14:19:00.081Z,2.02
2023-01-20T14:21:29.163Z,1.98
2023-01-20T14:23:56.582Z,2.05
2023-01-20T14:26:23.371Z,2.09
2023-01-20T14:28:55.648Z,2.09
2023-01-20T14:31:36.590Z,2.11
2023-01-20T14:34:29.080Z,2.13
2023-01-20T14:36:57.979Z,2.06
2023-01-20T14:39:26.734Z,2.05
2023-01-20T14:41:57.730Z,2.04
2023-01-20T14:44:29.198Z,2.00
2023-01-20T14:46:57.887Z,1.88
2023-01-20T14:49:32.603Z,1.89
2023-01-20T14:52:00.077Z,1.90
2023-01-20T14:54:35.209Z,1.92
2023-01-20T14:57:25.710Z,1.89
2023-01-20T15:00:03.977Z,1.90
2023-01-20T15:02:34.578Z,1.90
2023-01-20T15:05:01.619Z,1.87
2023-01-20T15:07:28.559Z,1.76
2023-01-20T15:10:04.065Z,1.73
2023-01-20T15:12:30.788Z,1.69
2023-01-20T15:15:06.614Z,1.60
2023-01-20T15:17:33.389Z,1.57
2023-01-20T15:20:00.121Z,1.51
2023-01-20T15:22:27.404Z,1.56
2023-01-20T15:24:54.523Z,1.56
2023-01-20T15:27:28.803Z,1.55
2023-01-20T15:30:20.149Z,1.61
2023-01-20T15:32:47.771Z,1.63
2023-01-20T15:35:16.457Z,1.58
2023-01-20T15:37:43.939Z,1.66
2023-01-20T15:40:16.686Z,1.64
2023-01-20T15:42:43.831Z,1.61
2023-01-20T15:45:15.149Z,1.58
2023-01-20T15:47:42.911Z,1.53
2023-01-20T15:50:19.088Z,1.51
2023-01-20T15:52:46.100Z,1.43
2023-01-20T15:55:14.940Z,1.38
2023-01-20T15:57:42.305Z,1.29
2023-01-20T16:00:17.147Z,1.26
2023-01-20T16:02:44.155Z,1.28
2023-01-20T16:05:14.626Z,1.19
2023-01-20T16:07:44.245Z,1.18
2023-01-20T16:10:18.563Z,1.12
2023-01-20T16:12:46.322Z,1.08
2023-01-20T16:15:15.286Z,1.07
2023-01-20T16:17:42.250Z,1.03
2023-01-20T16:20:29.320Z,1.01
2023-01-20T16:22:57.401Z,1.00
2023-01-20T16:25:24.726Z,1.01
2023-01-20T16:27:53.518Z,0.97
2023-01-20T16:30:22.766Z,0.99
2023-01-20T16:32:50.160Z,1.00
2023-01-20T16:35:18.430Z,0.98
2023-01-20T16:37:47.465Z,0.95
2023-01-20T16:40:16.654Z,0.90
2023-01-20T16:42:43.761Z,0.87
2023-01-20T16:45:23.974Z,0.83
2023-01-20T16:47:50.964Z,0.79
2023-01-20T16:50:18.532Z,0.79
2023-01-20T16:52:45.971Z,0.79
2023-01-20T16:55:13.682Z,0.76
2023-01-20T16:57:40.502Z,0.70
2023-01-20T17:00:08.543Z,0.68
2023-01-20T17:02:35.390Z,0.71
2023-01-20T17:05:02.247Z,0.70
2023-01-20T17:07:28.967Z,0.75
2023-01-20T17:09:56.290Z,0.78
2023-01-20T17:12:23.296Z,0.77
2023-01-20T17:14:50.133Z,0.79
2023-01-20T17:17:16.945Z,0.81
2023-01-20T17:19:43.983Z,0.79
2023-01-20T17:22:10.831Z,0.76
2023-01-20T17:24:39.266Z,0.78
2023-01-20T17:27:07.019Z,0.76
2023-01-20T17:29:38.806Z,0.78
2023-01-20T17:32:05.591Z,0.75
2023-01-20T17:34:32.473Z,0.79
2023-01-20T17:36:59.970Z,0.82
2023-01-20T17:39:33.127Z,0.85
2023-01-20T17:41:59.891Z,0.80
2023-01-20T17:44:26.633Z,0.75
2023-01-20T17:46:53.614Z,0.79
2023-01-20T17:49:20.627Z,0.83
2023-01-20T17:51:47.596Z,0.81
2023-01-20T17:54:14.305Z,0.83
2023-01-20T17:56:41.201Z,0.78
2023-01-20T17:59:08.033Z,0.79
2023-01-20T18:01:35.054Z,0.79
2023-01-20T18:04:04.333Z,0.80
2023-01-20T18:06:34.935Z,0.81
2023-01-20T18:09:02.646Z,0.80
2023-01-20T18:11:32.086Z,0.86
2023-01-20T18:14:00.389Z,0.82
2023-01-20T18:16:30.575Z,0.86
2023-01-20T18:19:00.839Z,0.89
2023-01-20T18:21:33.183Z,0.90
2023-01-20T18:24:01.163Z,0.88
2023-01-20T18:26:30.912Z,0.84
2023-01-20T18:29:02.432Z,0.87
2023-01-20T18:31:31.862Z,0.89
2023-01-20T18:34:01.116Z,0.85
2023-01-20T18:36:33.694Z,0.86
2023-01-20T18:39:08.992Z,0.86
2023-01-20T18:41:37.829Z,0.92
2023-01-20T18:44:05.464Z,0.97
2023-01-20T18:46:32.721Z,0.99
2023-01-20T18:48:59.852Z,1.04
2023-01-20T18:51:28.958Z,1.06
2023-01-20T18:54:13.059Z,1.10
2023-01-20T18:56:40.287Z,1.08
2023-01-20T18:59:07.892Z,1.10
2023-01-20T19:01:37.964Z,1.09
2023-01-20T19:04:06.361Z,1.08
2023-01-20T19:06:36.895Z,1.10
2023-01-20T19:09:04.440Z,1.12
2023-01-20T19:11:34.373Z,1.17
2023-01-20T19:14:01.659Z,1.15
2023-01-20T19:16:33.212Z,1.16
2023-01-20T19:19:02.258Z,1.20
2023-01-20T19:21:33.628Z,1.22
2023-01-20T19:24:05.825Z,1.25
2023-01-20T19:26:35.817Z,1.26
2023-01-20T19:29:06.324Z,1.25
2023-01-20T19:31:35.998Z,1.29
2023-01-20T19:34:03.173Z,1.30
2023-01-20T19:36:30.322Z,1.33
2023-01-20T19:38:57.911Z,1.33
2023-01-20T19:41:29.645Z,1.35
2023-01-20T19:43:58.092Z,1.37
2023-01-20T19:46:27.167Z,1.41
2023-01-20T19:48:56.006Z,1.43
2023-01-20T19:51:24.028Z,1.40
2023-01-20T19:53:58.054Z,1.44
2023-01-20T19:56:27.366Z,1.41
2023-01-20T19:58:55.230Z,1.30
2023-01-20T20:01:24.853Z,1.33
2023-01-20T20:03:52.872Z,1.39
2023-01-20T20:06:49.108Z,1.37
2023-01-20T20:09:18.631Z,1.38
2023-01-20T20:11:46.878Z,1.38
2023-01-20T20:14:16.134Z,1.36
2023-01-20T20:16:43.565Z,1.34
2023-01-20T20:19:14.143Z,1.33
2023-01-20T20:21:41.228Z,1.27
2023-01-20T20:24:10.562Z,1.24
2023-01-20T20:26:37.765Z,1.32
2023-01-20T20:29:06.801Z,1.31
2023-01-20T20:31:35.655Z,1.30
2023-01-20T20:34:03.304Z,1.34
2023-01-20T20:36:31.025Z,1.34
2023-01-20T20:38:59.182Z,1.40
2023-01-20T20:41:28.884Z,1.41
2023-01-20T20:43:56.525Z,1.35
2023-01-20T20:46:23.656Z,1.36
2023-01-20T20:48:54.531Z,1.39
2023-01-20T20:51:23.728Z,1.43
2023-01-20T20:53:56.273Z,1.39
2023-01-20T20:56:23.876Z,1.39
2023-01-20T20:59:01.033Z,1.39
2023-01-20T21:01:30.992Z,1.40
2023-01-20T21:04:00.245Z,1.39
2023-01-20T21:06:27.483Z,1.37
2023-01-20T21:08:54.549Z,1.41
2023-01-20T21:11:21.774Z,1.44
2023-01-20T21:13:51.685Z,1.41
2023-01-20T21:16:22.067Z,1.47
2023-01-20T21:18:50.323Z,1.46
2023-01-20T21:21:19.235Z,1.48
2023-01-20T21:23:54.190Z,1.42
2023-01-20T21:26:21.445Z,1.36
2023-01-20T21:28:51.249Z,1.34
2023-01-20T21:31:21.369Z,1.36
2023-01-20T21:33:53.504Z,1.35
2023-01-20T21:36:21.513Z,1.34
2023-01-20T21:38:48.440Z,1.34
2023-01-20T21:41:15.649Z,1.35
2023-01-20T21:44:03.003Z,1.34
2023-01-20T21:46:38.264Z,1.30
2023-01-20T21:49:24.775Z,1.23
2023-01-20T21:52:10.122Z,1.28
2023-01-20T21:54:39.396Z,1.32
2023-01-20T21:57:06.171Z,1.31
2023-01-20T21:59:32.887Z,1.28
2023-01-20T22:01:59.785Z,1.23
2023-01-20T22:04:26.603Z,1.22
2023-01-20T22:06:53.348Z,1.28
2023-01-20T22:09:20.149Z,1.29
2023-01-20T22:11:46.928Z,1.30
2023-01-20T22:14:13.685Z,1.19
2023-01-20T22:16:40.641Z,1.16
2023-01-20T22:19:07.495Z,1.23
2023-01-20T22:21:34.307Z,1.22
2023-01-20T22:24:02.810Z,1.25
2023-01-20T22:26:29.718Z,1.29
2023-01-20T22:28:56.754Z,1.32
2023-01-20T22:31:24.073Z,1.32
2023-01-20T22:33:54.909Z,1.30
2023-01-20T22:36:22.645Z,1.29
2023-01-20T22:38:50.655Z,1.31
2023-01-20T22:41:18.442Z,1.28
2023-01-20T22:43:45.246Z,1.29
2023-01-20T22:46:13.695Z,1.28
2023-01-20T22:48:41.202Z,1.30
2023-01-20T22:51:10.703Z,1.16
2023-01-20T22:53:38.295Z,1.15
2023-01-20T22:56:07.127Z,1.20
2023-01-20T22:58:34.267Z,1.24
2023-01-20T23:01:01.356Z,1.22
2023-01-20T23:03:28.298Z,1.21
2023-01-20T23:05:57.209Z,1.20
2023-01-20T23:08:27.379Z,1.17
2023-01-20T23:11:00.196Z,1.15
2023-01-20T23:13:28.951Z,1.15
2023-01-20T23:15:56.297Z,1.19
2023-01-20T23:18:23.711Z,1.19
2023-01-20T23:20:54.272Z,1.18
2023-01-20T23:23:21.605Z,1.03
2023-01-20T23:25:48.324Z,1.09
2023-01-20T23:28:15.933Z,1.10
2023-01-20T23:30:43.616Z,1.01
2023-01-20T23:33:10.489Z,1.12
2023-01-20T23:35:39.055Z,1.12
2023-01-20T23:38:07.089Z,1.11
2023-01-20T23:40:34.922Z,1.05
2023-01-20T23:43:01.663Z,1.08
2023-01-20T23:45:28.827Z,1.10
2023-01-20T23:47:55.657Z,1.15
2023-01-20T23:50:22.495Z,1.15
2023-01-20T23:52:49.206Z,1.15
2023-01-20T23:55:16.028Z,1.10
2023-01-20T23:57:42.814Z,1.20
